createdAt,value
2019-02-09T00:02:13.473Z,99817.80
2019-02-09T00:04:45.588Z,99821.52
2019-02-09T00:07:17.729Z,99828.81
2019-02-09T00:09:50.046Z,99834.41
2019-02-09T00:12:22.330Z,99835.77
2019-02-09T00:14:54.674Z,99841.17
2019-02-09T00:17:27.045Z,99839.48
2019-02-09T00:20:00.462Z,99838.95
2019-02-09T00:22:33.771Z,99831.73
2019-02-09T00:25:06.057Z,99841.54
2019-02-09T00:27:39.367Z,99840.86
2019-02-09T00:30:11.852Z,99841.72
2019-02-09T00:32:44.306Z,99837.33
2019-02-09T00:35:16.655Z,99845.62
2019-02-09T00:37:49.061Z,99853.03
2019-02-09T00:40:21.334Z,99858.11
2019-02-09T00:42:53.580Z,99860.51
2019-02-09T00:45:25.738Z,99864.72
2019-02-09T00:47:57.974Z,99869.98
2019-02-09T00:50:30.472Z,99869.64
2019-02-09T00:53:02.471Z,99880.12
2019-02-09T00:55:34.620Z,99878.46
2019-02-09T00:58:06.836Z,99880.30
2019-02-09T01:00:39.001Z,99886.20
2019-02-09T01:03:11.459Z,99882.67
2019-02-09T01:05:44.285Z,99885.03
2019-02-09T01:08:16.433Z,99884.17
2019-02-09T01:10:48.749Z,99893.64
2019-02-09T01:13:21.037Z,99902.27
2019-02-09T01:15:53.200Z,99906.34
2019-02-09T01:18:25.559Z,99906.52
2019-02-09T01:20:57.744Z,99915.48
2019-02-09T01:23:30.137Z,99917.17
2019-02-09T01:26:02.303Z,99917.54
2019-02-09T01:28:34.555Z,99918.71
2019-02-09T01:31:06.861Z,99918.55
2019-02-09T01:33:39.037Z,99923.13
2019-02-09T01:36:11.314Z,99919.59
2019-02-09T01:38:43.463Z,99926.17
2019-02-09T01:41:15.701Z,99933.12
2019-02-09T01:43:47.938Z,99951.71
2019-02-09T01:46:20.268Z,99967.08
2019-02-09T01:48:52.667Z,99973.84
2019-02-09T01:51:24.945Z,99973.34
2019-02-09T01:53:57.116Z,99971.83
2019-02-09T01:56:29.519Z,99981.14
2019-02-09T01:59:01.776Z,99987.24
2019-02-09T02:01:34.029Z,99992.97
2019-02-09T02:04:06.301Z,99998.38
2019-02-09T02:06:41.939Z,99997.72
2019-02-09T02:09:14.070Z,100000.61
2019-02-09T02:11:46.423Z,100000.08
2019-02-09T02:14:18.659Z,100001.95
2019-02-09T02:16:50.940Z,100007.70
2019-02-09T02:19:23.271Z,100009.23
2019-02-09T02:21:55.491Z,100008.72
2019-02-09T02:24:27.735Z,100012.09
2019-02-09T02:26:59.958Z,100016.48
2019-02-09T02:29:32.132Z,100022.91
2019-02-09T02:32:04.370Z,100035.94
2019-02-09T02:34:36.756Z,100045.58
2019-02-09T02:37:08.963Z,100051.30
2019-02-09T02:39:41.144Z,100063.98
2019-02-09T02:42:14.609Z,100067.03
2019-02-09T02:44:46.687Z,100066.69
2019-02-09T02:47:19.137Z,100072.62
2019-02-09T02:49:51.458Z,100068.56
2019-02-09T02:52:23.569Z,100078.34
2019-02-09T02:54:55.885Z,100080.04
2019-02-09T02:57:28.160Z,100086.14
2019-02-09T03:00:00.402Z,100089.34
2019-02-09T03:02:32.529Z,100102.55
2019-02-09T03:05:04.659Z,100108.61
2019-02-09T03:07:36.910Z,100116.55
2019-02-09T03:10:09.683Z,100111.14
2019-02-09T03:12:41.904Z,100112.02
2019-02-09T03:15:15.293Z,100119.27
2019-02-09T03:17:47.480Z,100128.72
2019-02-09T03:20:20.020Z,100141.23
2019-02-09T03:22:52.272Z,100138.19
2019-02-09T03:25:27.036Z,100148.52
2019-02-09T03:27:59.589Z,100147.66
2019-02-09T03:30:45.816Z,100154.41
2019-02-09T03:33:05.687Z,100155.45
2019-02-09T03:35:38.003Z,100158.64
2019-02-09T03:38:10.334Z,100160.00
2019-02-09T03:40:42.879Z,100168.63
2019-02-09T03:43:15.208Z,100171.16
2019-02-09T03:45:47.295Z,100176.57
2019-02-09T03:48:19.519Z,100173.69
2019-02-09T03:50:51.780Z,100184.16
2019-02-09T03:53:23.962Z,100190.61
2019-02-09T03:55:56.276Z,100185.20
2019-02-09T03:58:28.447Z,100198.03
2019-02-09T04:01:00.830Z,100201.08
2019-02-09T04:03:33.006Z,100196.36
2019-02-09T04:06:05.324Z,100208.02
2019-02-09T04:08:37.494Z,100209.88
2019-02-09T04:11:09.679Z,100206.83
2019-02-09T04:13:41.838Z,100210.54
2019-02-09T04:16:17.067Z,100210.54
2019-02-09T04:18:49.600Z,100207.00
2019-02-09T04:21:21.806Z,100210.19
2019-02-09T04:23:54.112Z,100209.02
2019-02-09T04:26:26.241Z,100212.75
2019-02-09T04:28:58.568Z,100223.88
2019-02-09T04:31:30.809Z,100218.64
2019-02-09T04:34:03.071Z,100214.24
2019-02-09T04:36:35.357Z,100230.16
2019-02-09T04:39:08.868Z,100225.41
2019-02-09T04:41:41.185Z,100227.77
2019-02-09T04:44:13.674Z,100230.47
2019-02-09T04:46:46.219Z,100235.88
2019-02-09T04:49:18.719Z,100237.40
2019-02-09T04:51:50.869Z,100232.16
2019-02-09T04:54:23.040Z,100237.56
2019-02-09T04:56:56.235Z,100231.33
2019-02-09T04:59:28.949Z,100229.63
2019-02-09T05:02:01.311Z,100233.20
2019-02-09T05:04:49.645Z,100238.60
2019-02-09T05:07:32.014Z,100238.44
2019-02-09T05:11:00.015Z,100237.58
2019-02-09T05:14:01.270Z,100241.64
2019-02-09T05:17:45.391Z,100241.64
2019-02-09T05:20:52.437Z,100240.30
2019-02-09T05:28:29.240Z,100225.07
2019-02-09T05:31:22.614Z,100223.89
2019-02-09T05:34:29.833Z,100221.18
2019-02-09T05:37:36.666Z,100220.17
2019-02-09T05:50:36.147Z,100216.63
2019-02-09T06:00:59.355Z,100212.22
2019-02-09T06:07:27.327Z,100209.03
2019-02-09T06:10:21.959Z,100205.81
2019-02-09T06:13:44.960Z,100202.77
2019-02-09T06:16:37.183Z,100193.47
2019-02-09T06:19:56.167Z,100197.52
2019-02-09T06:23:06.754Z,100190.77
2019-02-09T06:29:45.167Z,100178.60
2019-02-09T06:36:07.734Z,100177.42
2019-02-09T06:39:23.723Z,100173.55
2019-02-09T06:45:36.246Z,100157.84
2019-02-09T06:52:04.147Z,100153.93
2019-02-09T07:02:47.036Z,100138.92
2019-02-09T07:05:24.717Z,100127.77
2019-02-09T07:09:07.098Z,100128.11
2019-02-09T07:14:34.608Z,100117.78
2019-02-09T07:17:45.038Z,100104.61
2019-02-09T07:21:06.706Z,100100.73
2019-02-09T07:24:00.255Z,100097.86
2019-02-09T07:27:12.791Z,100079.94
2019-02-09T07:30:15.057Z,100075.41
2019-02-09T07:33:02.652Z,100069.65
2019-02-09T07:36:01.509Z,100057.83
2019-02-09T07:42:26.760Z,100045.50
2019-02-09T07:45:22.295Z,100042.09
2019-02-09T07:48:17.948Z,100037.56
2019-02-09T07:51:34.897Z,100036.21
2019-02-09T07:54:30.339Z,100032.16
2019-02-09T07:57:37.868Z,100040.58
2019-02-09T08:03:55.952Z,100026.41
2019-02-09T08:07:25.006Z,100028.09
2019-02-09T08:10:04.756Z,100024.36
2019-02-09T08:13:33.149Z,100014.41
2019-02-09T08:16:40.833Z,100015.90
2019-02-09T08:23:09.783Z,100013.06
2019-02-09T08:26:38.477Z,100003.42
2019-02-09T08:29:10.326Z,100001.91
2019-02-09T08:31:42.796Z,100002.56
2019-02-09T08:34:15.344Z,99999.02
2019-02-09T08:36:47.660Z,99993.97
2019-02-09T08:39:19.797Z,99993.62
2019-02-09T08:41:52.266Z,99988.56
2019-02-09T08:44:25.590Z,99991.26
2019-02-09T08:46:58.039Z,99998.02
2019-02-09T08:49:30.267Z,99993.09
2019-02-09T08:52:02.571Z,99989.05
2019-02-09T08:54:35.064Z,99994.80
2019-02-09T08:57:07.374Z,99993.97
2019-02-09T08:59:39.786Z,99988.04
2019-02-09T09:02:20.062Z,99985.33
2019-02-09T09:04:46.474Z,99977.75
2019-02-09T09:07:18.883Z,99979.41
2019-02-09T09:09:51.347Z,99978.92
2019-02-09T09:12:23.424Z,99976.70
2019-02-09T09:14:55.669Z,99976.70
2019-02-09T09:17:27.827Z,99974.34
2019-02-09T09:20:00.253Z,99971.64
2019-02-09T09:22:32.680Z,99966.23
2019-02-09T09:25:05.141Z,99969.46
2019-02-09T09:27:38.034Z,99961.34
2019-02-09T09:30:12.021Z,99966.58
2019-02-09T09:32:44.524Z,99961.69
2019-02-09T09:35:17.058Z,99961.69
2019-02-09T09:37:49.500Z,99965.23
2019-02-09T09:40:25.784Z,99964.70
2019-02-09T09:42:58.279Z,99963.18
2019-02-09T09:45:31.535Z,99963.70
2019-02-09T09:48:03.807Z,99959.81
2019-02-09T09:50:36.273Z,99962.17
2019-02-09T09:53:09.029Z,99961.16
2019-02-09T09:55:41.418Z,99959.47
2019-02-09T09:58:13.853Z,99966.05
2019-02-09T10:00:46.031Z,99966.23
2019-02-09T10:03:18.427Z,99956.09
2019-02-09T10:05:51.117Z,99961.50
2019-02-09T10:08:23.659Z,99958.80
2019-02-09T10:10:56.092Z,99962.34
2019-02-09T10:13:28.487Z,99964.20
2019-02-09T10:16:00.984Z,99960.47
2019-02-09T10:18:33.461Z,99967.22
2019-02-09T10:21:05.915Z,99963.51
2019-02-09T10:23:39.911Z,99967.91
2019-02-09T10:26:13.307Z,99966.56
2019-02-09T10:28:45.645Z,99961.16
2019-02-09T10:31:18.272Z,99965.03
2019-02-09T10:33:50.541Z,99964.16
2019-02-09T10:36:23.009Z,99962.33
2019-02-09T10:38:55.523Z,99962.25
2019-02-09T10:41:29.378Z,99959.43
2019-02-09T10:44:01.919Z,99956.91
2019-02-09T10:46:34.766Z,99959.09
2019-02-09T10:49:07.078Z,99958.26
2019-02-09T10:51:39.667Z,99965.33
2019-02-09T10:54:12.120Z,99960.44
2019-02-09T10:56:44.725Z,99964.84
2019-02-09T10:59:17.374Z,99971.59
2019-02-09T11:01:49.782Z,99968.89
2019-02-09T11:04:22.428Z,99971.08
2019-02-09T11:06:54.699Z,99967.02
2019-02-09T11:09:27.661Z,99964.14
2019-02-09T11:11:59.757Z,99964.66
2019-02-09T11:14:31.935Z,99967.70
2019-02-09T11:17:04.081Z,99964.30
2019-02-09T11:19:36.244Z,99961.08
2019-02-09T11:22:08.511Z,99970.23
2019-02-09T11:24:40.769Z,99973.25
2019-02-09T11:27:13.441Z,99976.30
2019-02-09T11:29:45.593Z,99972.23
2019-02-09T11:32:17.532Z,99976.64
2019-02-09T11:34:49.562Z,99976.30
2019-02-09T11:37:21.885Z,99978.33
2019-02-09T11:39:54.279Z,99976.64
2019-02-09T11:42:26.715Z,99980.69
2019-02-09T11:45:06.003Z,99979.68
2019-02-09T11:47:38.474Z,99982.70
2019-02-09T11:50:11.343Z,99982.20
2019-02-09T11:52:43.611Z,99978.46
2019-02-09T11:55:15.986Z,99983.38
2019-02-09T11:57:49.117Z,99981.84
2019-02-09T12:00:25.345Z,99978.98
2019-02-09T12:03:03.140Z,99986.40
2019-02-09T12:05:31.880Z,99990.14
2019-02-09T12:08:03.988Z,99989.10
2019-02-09T12:10:36.202Z,99993.16
2019-02-09T12:13:09.639Z,99988.09
2019-02-09T12:15:41.964Z,99992.14
2019-02-09T12:18:14.263Z,99997.06
2019-02-09T12:20:46.662Z,99996.89
2019-02-09T12:23:18.999Z,99996.02
2019-02-09T12:25:52.371Z,100004.98
2019-02-09T12:28:24.523Z,100001.58
2019-02-09T12:30:56.836Z,100006.64
2019-02-09T12:33:29.111Z,100010.05
2019-02-09T12:36:01.416Z,100015.27
2019-02-09T12:38:33.779Z,100019.81
2019-02-09T12:41:06.532Z,100021.86
2019-02-09T12:43:38.757Z,100026.91
2019-02-09T12:46:11.133Z,100025.73
2019-02-09T12:48:43.254Z,100027.09
2019-02-09T12:51:15.567Z,100025.56
2019-02-09T12:53:47.755Z,100027.43
2019-02-09T12:56:19.975Z,100029.80
2019-02-09T12:58:52.177Z,100027.92
2019-02-09T13:01:24.425Z,100028.59
2019-02-09T13:03:56.496Z,100038.41
2019-02-09T13:06:28.401Z,100037.06
2019-02-09T13:09:00.630Z,100046.84
2019-02-09T13:11:32.866Z,100050.90
2019-02-09T13:14:05.154Z,100051.24
2019-02-09T13:16:37.323Z,100059.70
2019-02-09T13:19:09.553Z,100060.36
2019-02-09T13:21:41.923Z,100066.97
2019-02-09T13:24:14.325Z,100070.02
2019-02-09T13:26:46.720Z,100062.73
2019-02-09T13:29:19.016Z,100067.14
2019-02-09T13:31:51.120Z,100071.89
2019-02-09T13:34:23.186Z,100077.13
2019-02-09T13:36:55.535Z,100082.02
2019-02-09T13:39:27.841Z,100090.13
2019-02-09T13:42:00.037Z,100092.50
2019-02-09T13:44:32.642Z,100096.55
2019-02-09T13:47:04.935Z,100094.84
2019-02-09T13:49:37.240Z,100099.60
2019-02-09T13:52:09.670Z,100103.32
2019-02-09T13:54:41.940Z,100106.53
2019-02-09T13:57:13.987Z,100111.42
2019-02-09T13:59:46.192Z,100107.89
2019-02-09T14:02:18.294Z,100111.77
2019-02-09T14:04:50.535Z,100120.72
2019-02-09T14:07:22.629Z,100119.89
2019-02-09T14:09:54.755Z,100121.89
2019-02-09T14:12:28.249Z,100123.95
2019-02-09T14:15:00.408Z,100123.95
2019-02-09T14:17:32.654Z,100131.54
2019-02-09T14:20:05.012Z,100131.36
2019-02-09T14:22:37.343Z,100133.23
2019-02-09T14:25:10.723Z,100135.42
2019-02-09T14:27:43.083Z,100141.35
2019-02-09T14:30:17.282Z,100139.48
2019-02-09T14:32:50.471Z,100145.41
2019-02-09T14:35:22.826Z,100146.77
2019-02-09T14:37:55.265Z,100146.42
2019-02-09T14:40:31.104Z,100147.59
2019-02-09T14:43:03.234Z,100149.30
2019-02-09T14:45:35.999Z,100149.47
2019-02-09T14:48:08.091Z,100153.88
2019-02-09T14:50:40.220Z,100161.47
2019-02-09T14:53:14.542Z,100157.76
2019-02-09T14:55:47.050Z,100159.10
2019-02-09T14:58:19.269Z,100159.77
2019-02-09T15:00:52.476Z,100167.40
2019-02-09T15:03:26.914Z,100164.69
2019-02-09T15:05:58.343Z,100175.17
2019-02-09T15:08:31.079Z,100170.11
2019-02-09T15:11:03.286Z,100175.52
2019-02-09T15:13:35.565Z,100174.66
2019-02-09T15:16:32.298Z,100183.13
2019-02-09T15:19:04.540Z,100186.34
2019-02-09T15:21:36.836Z,100182.77
2019-02-09T15:24:09.150Z,100192.25
2019-02-09T15:26:41.376Z,100196.65
2019-02-09T15:29:13.735Z,100189.89
2019-02-09T15:31:45.944Z,100186.66
2019-02-09T15:34:18.154Z,100191.76
2019-02-09T15:36:50.764Z,100193.42
2019-02-09T15:39:22.909Z,100186.52
2019-02-09T15:41:55.067Z,100193.59
2019-02-09T15:44:27.457Z,100193.11
2019-02-09T15:46:59.866Z,100194.12
2019-02-09T15:49:32.007Z,100200.71
2019-02-09T15:52:04.164Z,100213.58
2019-02-09T15:54:36.359Z,100212.23
2019-02-09T15:57:08.479Z,100217.12
2019-02-09T15:59:40.822Z,100222.02
2019-02-09T16:02:13.195Z,100222.36
2019-02-09T16:04:45.316Z,100215.25
2019-02-09T16:07:17.700Z,100222.02
2019-02-09T16:09:49.957Z,100222.70
2019-02-09T16:12:22.156Z,100221.70
2019-02-09T16:14:54.302Z,100218.81
2019-02-09T16:17:26.392Z,100224.72
2019-02-09T16:19:58.724Z,100220.17
2019-02-09T16:22:30.946Z,100225.58
2019-02-09T16:25:02.944Z,100228.29
2019-02-09T16:27:35.069Z,100227.42
2019-02-09T16:30:07.851Z,100229.30
2019-02-09T16:32:41.249Z,100226.06
2019-02-09T16:35:14.260Z,100226.59
2019-02-09T16:37:46.502Z,100233.02
2019-02-09T16:40:20.555Z,100232.52
2019-02-09T16:42:53.185Z,100239.29
2019-02-09T16:45:26.098Z,100243.17
2019-02-09T16:47:58.224Z,100244.18
2019-02-09T16:50:31.664Z,100240.47
2019-02-09T16:53:06.738Z,100236.41
2019-02-09T16:55:41.834Z,100248.76
2019-02-09T16:58:14.329Z,100246.71
2019-02-09T17:00:46.476Z,100245.02
2019-02-09T17:03:18.764Z,100233.35
2019-02-09T17:05:50.959Z,100235.05
2019-02-09T17:08:23.089Z,100234.53
2019-02-09T17:10:56.708Z,100234.53
2019-02-09T17:13:28.981Z,100226.94
2019-02-09T17:16:01.015Z,100227.77
2019-02-09T17:18:33.521Z,100226.94
2019-02-09T17:21:05.660Z,100225.06
2019-02-09T17:23:38.034Z,100217.64
2019-02-09T17:26:10.123Z,100213.58
2019-02-09T17:28:42.271Z,100201.89
2019-02-09T17:31:14.380Z,100208.66
2019-02-09T17:33:46.697Z,100203.25
2019-02-09T17:36:18.932Z,100202.41
2019-02-09T17:38:51.237Z,100195.99
2019-02-09T17:41:23.614Z,100194.81
2019-02-09T17:43:55.808Z,100188.19
2019-02-09T17:46:28.121Z,100187.19
2019-02-09T17:49:00.213Z,100186.35
2019-02-09T17:51:32.542Z,100188.54
2019-02-09T17:54:05.013Z,100185.83
2019-02-09T17:56:37.138Z,100188.70
2019-02-09T17:59:09.281Z,100187.18
2019-02-09T18:01:41.463Z,100186.83
2019-02-09T18:04:13.596Z,100185.83
2019-02-09T18:06:45.831Z,100179.23
2019-02-09T18:09:18.174Z,100188.53
2019-02-09T18:11:50.700Z,100188.36
2019-02-09T18:14:22.921Z,100194.95
2019-02-09T18:16:55.334Z,100186.52
2019-02-09T18:19:27.371Z,100186.00
2019-02-09T18:21:59.873Z,100171.11
2019-02-09T18:24:31.983Z,100167.53
2019-02-09T18:27:04.289Z,100169.75
2019-02-09T18:29:36.719Z,100159.94
2019-02-09T18:32:09.031Z,100150.64
2019-02-09T18:34:41.075Z,100154.70
2019-02-09T18:37:13.326Z,100152.99
2019-02-09T18:39:45.492Z,100156.70
2019-02-09T18:42:17.653Z,100155.87
2019-02-09T18:44:49.820Z,100156.39
2019-02-09T18:47:21.999Z,100154.87
2019-02-09T18:49:54.167Z,100151.30
2019-02-09T18:52:26.295Z,100155.70
2019-02-09T18:54:58.670Z,100159.27
2019-02-09T18:57:30.966Z,100158.41
2019-02-09T19:00:03.144Z,100158.41
2019-02-09T19:02:38.542Z,100159.10
2019-02-09T19:05:09.295Z,100157.75
2019-02-09T19:07:43.081Z,100150.98
2019-02-09T19:10:16.921Z,100144.22
2019-02-09T19:12:49.189Z,100145.05
2019-02-09T19:15:21.477Z,100154.52
2019-02-09T19:17:53.730Z,100149.29
2019-02-09T19:20:30.311Z,100153.34
2019-02-09T19:23:02.826Z,100146.58
2019-02-09T19:25:35.021Z,100146.06
2019-02-09T19:28:08.898Z,100144.57
2019-02-09T19:30:41.914Z,100139.12
2019-02-09T19:33:14.249Z,100140.47
2019-02-09T19:35:46.476Z,100145.39
2019-02-09T19:38:18.724Z,100149.94
2019-02-09T19:40:50.883Z,100148.59
2019-02-09T19:43:23.034Z,100153.34
2019-02-09T19:45:55.237Z,100155.05
2019-02-09T19:48:27.515Z,100152.34
2019-02-09T19:50:59.798Z,100154.17
2019-02-09T19:53:32.077Z,100150.64
2019-02-09T19:56:04.308Z,100152.83
2019-02-09T19:58:36.587Z,100151.47
2019-02-09T20:01:08.814Z,100141.17
2019-02-09T20:03:40.935Z,100137.11
2019-02-09T20:06:13.105Z,100138.46
2019-02-09T20:08:45.251Z,100133.75
2019-02-09T20:11:17.679Z,100138.46
2019-02-09T20:13:49.851Z,100140.83
2019-02-09T20:16:22.242Z,100138.13
2019-02-09T20:18:54.429Z,100141.00
2019-02-09T20:21:26.882Z,100135.10
2019-02-09T20:23:59.166Z,100136.45
2019-02-09T20:26:31.707Z,100124.42
2019-02-09T20:29:03.793Z,100116.83
2019-02-09T20:31:36.329Z,100115.47
2019-02-09T20:34:08.671Z,100110.76
2019-02-09T20:36:41.090Z,100112.94
2019-02-09T20:39:13.410Z,100123.42
2019-02-09T20:41:45.905Z,100115.83
2019-02-09T20:44:18.744Z,100111.77
2019-02-09T20:46:51.294Z,100108.72
2019-02-09T20:49:23.499Z,100111.95
2019-02-09T20:51:55.837Z,100104.31
2019-02-09T20:54:28.029Z,100105.53
2019-02-09T20:57:00.505Z,100102.66
2019-02-09T20:59:32.695Z,100092.31
2019-02-09T21:02:04.919Z,100101.61
2019-02-09T21:04:37.011Z,100096.38
2019-02-09T21:07:09.362Z,100085.06
2019-02-09T21:09:41.770Z,100087.95
2019-02-09T21:12:14.034Z,100075.25
2019-02-09T21:14:46.417Z,100079.83
2019-02-09T21:17:18.674Z,100079.48
2019-02-09T21:19:51.103Z,100084.56
2019-02-09T21:22:23.243Z,100088.42
2019-02-09T21:24:55.638Z,100084.70
2019-02-09T21:27:27.751Z,100082.34
2019-02-09T21:30:00.008Z,100071.17
2019-02-09T21:32:32.347Z,100064.94
2019-02-09T21:35:05.606Z,100064.07
2019-02-09T21:37:37.854Z,100065.77
2019-02-09T21:40:11.362Z,100064.25
2019-02-09T21:42:43.749Z,100065.94
2019-02-09T21:45:16.062Z,100059.18
2019-02-09T21:47:48.146Z,100060.71
2019-02-09T21:50:25.159Z,100048.54
2019-02-09T21:52:57.402Z,100046.53
2019-02-09T21:55:29.596Z,100036.02
2019-02-09T21:58:01.897Z,100043.30
2019-02-09T22:00:35.015Z,100046.36
2019-02-09T22:03:07.758Z,100040.08
2019-02-09T22:05:40.005Z,100042.12
2019-02-09T22:08:19.299Z,100046.53
2019-02-09T22:10:46.628Z,100044.49
2019-02-09T22:13:18.833Z,100057.19
2019-02-09T22:15:51.221Z,100044.67
2019-02-09T22:18:23.523Z,100045.19
2019-02-09T22:21:13.989Z,100040.79
2019-02-09T22:23:46.541Z,100043.50
2019-02-09T22:26:18.923Z,100045.68
2019-02-09T22:28:51.379Z,100051.27
2019-02-09T22:31:23.880Z,100047.20
2019-02-09T22:34:14.048Z,100045.20
2019-02-09T22:36:46.492Z,100047.39
2019-02-09T22:39:18.899Z,100040.63
2019-02-09T22:41:51.500Z,100048.74
2019-02-09T22:44:23.621Z,100041.81
2019-02-09T22:47:13.919Z,100040.64
2019-02-09T22:49:46.145Z,100054.16
2019-02-09T22:52:19.099Z,100043.86
2019-02-09T22:54:51.332Z,100052.98
2019-02-09T22:57:23.679Z,100061.27
2019-02-09T23:00:17.064Z,100062.62
2019-02-09T23:02:49.193Z,100059.75
2019-02-09T23:05:39.953Z,100065.98
2019-02-09T23:08:12.115Z,100058.57
2019-02-09T23:10:44.465Z,100060.27
2019-02-09T23:13:16.575Z,100058.57
2019-02-09T23:15:48.661Z,100065.33
2019-02-09T23:18:21.036Z,100059.75
2019-02-09T23:20:53.237Z,100064.67
2019-02-09T23:23:25.574Z,100057.05
2019-02-09T23:25:58.062Z,100062.12
2019-02-09T23:28:30.424Z,100072.10
2019-02-09T23:31:02.633Z,100072.62
2019-02-09T23:33:35.017Z,100072.62
2019-02-09T23:36:07.455Z,100079.38
2019-02-09T23:38:39.625Z,100079.56
2019-02-09T23:41:11.849Z,100089.02
2019-02-09T23:43:43.928Z,100089.86
2019-02-09T23:46:16.227Z,100094.61
2019-02-09T23:48:48.357Z,100088.34
2019-02-09T23:51:20.846Z,100090.03
2019-02-09T23:53:53.053Z,100092.05
2019-02-09T23:56:25.414Z,100099.67
2019-02-09T23:58:57.601Z,100095.79
